createdAt,value
2017-08-31T00:00:15.983Z,23.82
2017-08-31T00:00:44.134Z,23.79
2017-08-31T00:01:12.371Z,23.89
2017-08-31T00:01:40.380Z,23.84
2017-08-31T00:02:08.524Z,23.81
2017-08-31T00:02:36.352Z,23.84
2017-08-31T00:03:17.756Z,23.79
2017-08-31T00:03:45.538Z,23.89
2017-08-31T00:04:13.882Z,23.81
2017-08-31T00:04:41.893Z,23.76
2017-08-31T00:05:10.000Z,23.79
2017-08-31T00:05:37.904Z,23.84
2017-08-31T00:06:05.915Z,23.79
2017-08-31T00:06:33.991Z,23.74
2017-08-31T00:07:01.902Z,23.73
2017-08-31T00:07:29.907Z,23.73
2017-08-31T00:07:57.813Z,23.79
2017-08-31T00:08:25.833Z,23.7
2017-08-31T00:08:53.823Z,23.7
2017-08-31T00:09:21.738Z,23.71
2017-08-31T00:09:49.763Z,23.77
2017-08-31T00:10:17.893Z,23.7
2017-08-31T00:10:45.992Z,23.74
2017-08-31T00:11:13.904Z,23.74
2017-08-31T00:11:41.923Z,23.71
2017-08-31T00:12:10.059Z,23.69
2017-08-31T00:12:37.874Z,23.85
2017-08-31T00:13:05.875Z,23.73
2017-08-31T00:13:33.988Z,23.71
2017-08-31T00:14:01.907Z,23.77
2017-08-31T00:14:29.814Z,23.73
2017-08-31T00:14:57.836Z,23.71
2017-08-31T00:15:25.859Z,23.64
2017-08-31T00:15:53.684Z,23.62
2017-08-31T00:16:21.708Z,23.66
2017-08-31T00:16:50.615Z,23.69
2017-08-31T00:17:18.535Z,23.56
2017-08-31T00:17:46.562Z,23.58
2017-08-31T00:18:14.559Z,23.58
2017-08-31T00:18:42.484Z,23.59
2017-08-31T00:19:10.491Z,23.58
2017-08-31T00:19:38.307Z,23.54
2017-08-31T00:20:06.489Z,23.55
2017-08-31T00:20:34.606Z,23.55
2017-08-31T00:21:02.618Z,23.56
2017-08-31T00:21:30.702Z,23.55
2017-08-31T00:21:58.702Z,23.42
2017-08-31T00:22:26.790Z,23.44
2017-08-31T00:22:54.904Z,23.4
2017-08-31T00:23:22.937Z,23.36
2017-08-31T00:23:50.846Z,23.42
2017-08-31T00:24:18.935Z,23.36
2017-08-31T00:24:46.969Z,23.36
2017-08-31T00:25:14.944Z,23.32
2017-08-31T00:25:42.882Z,23.28
2017-08-31T00:26:10.795Z,23.23
2017-08-31T00:26:38.786Z,23.28
2017-08-31T00:27:06.897Z,23.25
2017-08-31T00:27:34.714Z,23.21
2017-08-31T00:28:02.740Z,23.25
2017-08-31T00:28:30.552Z,23.13
2017-08-31T00:28:58.587Z,23.07
2017-08-31T00:29:26.522Z,23.08
2017-08-31T00:29:54.549Z,23.16
2017-08-31T00:30:22.565Z,23.01
2017-08-31T00:30:52.056Z,23.16
2017-08-31T00:31:35.580Z,23.11
2017-08-31T00:32:03.636Z,23.08
2017-08-31T00:32:32.108Z,23.01
2017-08-31T00:33:00.232Z,22.98
2017-08-31T00:33:28.290Z,22.93
2017-08-31T00:33:56.891Z,22.92
2017-08-31T00:34:39.578Z,22.86
2017-08-31T00:35:07.686Z,22.83
2017-08-31T00:35:35.785Z,22.73
2017-08-31T00:36:03.782Z,22.77
2017-08-31T00:36:32.405Z,22.76
2017-08-31T00:37:00.332Z,22.76
2017-08-31T00:37:28.447Z,22.73
2017-08-31T00:37:56.445Z,22.74
2017-08-31T00:38:24.954Z,22.74
2017-08-31T00:38:52.958Z,22.74
2017-08-31T00:39:20.990Z,22.74
2017-08-31T00:39:49.111Z,22.71
2017-08-31T00:40:17.186Z,22.71
2017-08-31T00:40:45.211Z,22.78
2017-08-31T00:41:13.333Z,22.78
2017-08-31T00:41:41.216Z,22.73
2017-08-31T00:42:09.343Z,22.77
2017-08-31T00:42:37.268Z,22.73
2017-08-31T00:43:05.367Z,22.7
2017-08-31T00:43:33.397Z,22.71
2017-08-31T00:44:01.456Z,22.65
2017-08-31T00:44:29.476Z,22.67
2017-08-31T00:44:57.549Z,22.7
2017-08-31T00:45:25.676Z,22.68
2017-08-31T00:45:53.702Z,22.62
2017-08-31T00:46:21.865Z,22.65
2017-08-31T00:46:49.945Z,22.7
2017-08-31T00:47:18.054Z,22.7
2017-08-31T00:47:46.070Z,22.68
2017-08-31T00:48:14.085Z,22.62
2017-08-31T00:48:42.106Z,22.62
2017-08-31T00:49:10.103Z,22.71
2017-08-31T00:49:38.023Z,22.68
2017-08-31T00:50:06.140Z,22.67
2017-08-31T00:50:34.173Z,22.61
2017-08-31T00:51:02.264Z,22.65
2017-08-31T00:51:30.351Z,22.62
2017-08-31T00:51:58.356Z,22.58
2017-08-31T00:52:26.299Z,22.67
2017-08-31T00:52:54.423Z,22.51
2017-08-31T00:53:22.543Z,22.53
2017-08-31T00:53:50.562Z,22.58
2017-08-31T00:54:18.373Z,22.59
2017-08-31T00:54:46.618Z,22.61
2017-08-31T00:55:14.612Z,22.51
2017-08-31T00:55:42.442Z,22.56
2017-08-31T00:56:10.519Z,22.62
2017-08-31T00:56:38.296Z,22.55
2017-08-31T00:57:06.406Z,22.61
2017-08-31T00:57:34.299Z,22.58
2017-08-31T00:58:02.235Z,22.55
2017-08-31T00:58:30.340Z,22.55
2017-08-31T00:58:58.347Z,22.56
2017-08-31T00:59:26.376Z,22.47
2017-08-31T00:59:54.301Z,22.41
2017-08-31T01:00:22.326Z,22.38
2017-08-31T01:00:50.439Z,22.38
2017-08-31T01:01:18.576Z,22.38
2017-08-31T01:01:46.603Z,22.33
2017-08-31T01:02:14.700Z,22.26
2017-08-31T01:02:42.501Z,22.31
2017-08-31T01:03:10.604Z,22.34
2017-08-31T01:03:38.721Z,22.34
2017-08-31T01:04:06.823Z,22.25
2017-08-31T01:04:34.812Z,22.23
2017-08-31T01:05:02.713Z,22.23
2017-08-31T01:05:30.524Z,22.07
2017-08-31T01:05:58.339Z,22.16
2017-08-31T01:06:26.285Z,22.1
2017-08-31T01:06:54.493Z,22.1
2017-08-31T01:07:22.572Z,22.15
2017-08-31T01:07:50.583Z,22.07
2017-08-31T01:08:18.586Z,22.04
2017-08-31T01:08:46.626Z,22
2017-08-31T01:09:14.746Z,21.99
2017-08-31T01:09:42.546Z,21.91
2017-08-31T01:10:10.649Z,21.85
2017-08-31T01:10:38.748Z,21.92
2017-08-31T01:11:06.775Z,21.91
2017-08-31T01:11:34.820Z,21.75
2017-08-31T01:12:02.790Z,21.92
2017-08-31T01:12:30.712Z,21.75
2017-08-31T01:12:58.740Z,21.8
2017-08-31T01:13:26.853Z,21.84
2017-08-31T01:13:54.854Z,21.88
2017-08-31T01:14:22.961Z,21.81
2017-08-31T01:14:50.865Z,21.78
2017-08-31T01:15:18.785Z,21.8
2017-08-31T01:15:46.914Z,21.85
2017-08-31T01:16:15.019Z,21.85
2017-08-31T01:16:43.342Z,21.85
2017-08-31T01:17:11.447Z,21.89
2017-08-31T01:17:39.460Z,21.81
2017-08-31T01:18:07.484Z,21.91
2017-08-31T01:18:36.722Z,21.91
2017-08-31T01:19:04.734Z,21.85
2017-08-31T01:19:29.330Z,21.85
2017-08-31T01:19:57.421Z,21.83
2017-08-31T01:20:25.141Z,21.92
2017-08-31T01:20:53.218Z,21.84
2017-08-31T01:21:22.043Z,21.83
2017-08-31T01:21:50.267Z,21.91
2017-08-31T01:22:18.393Z,21.8
2017-08-31T01:22:46.401Z,21.83
2017-08-31T01:23:14.396Z,21.84
2017-08-31T01:23:43.021Z,21.83
2017-08-31T01:24:10.826Z,21.81
2017-08-31T01:24:35.445Z,21.78
2017-08-31T01:25:03.468Z,21.75
2017-08-31T01:25:31.615Z,21.77
2017-08-31T01:25:59.703Z,21.7
2017-08-31T01:26:27.632Z,21.63
2017-08-31T01:26:55.646Z,21.69
2017-08-31T01:27:23.794Z,21.63
2017-08-31T01:27:51.718Z,21.53
2017-08-31T01:28:19.822Z,21.53
2017-08-31T01:28:47.845Z,21.51
2017-08-31T01:29:15.778Z,21.44
2017-08-31T01:29:43.788Z,21.41
2017-08-31T01:30:11.900Z,21.43
2017-08-31T01:30:39.794Z,21.45
2017-08-31T01:31:07.985Z,21.43
2017-08-31T01:31:35.995Z,21.33
2017-08-31T01:32:04.233Z,21.33
2017-08-31T01:32:32.137Z,21.32
2017-08-31T01:33:00.146Z,21.35
2017-08-31T01:33:28.255Z,21.32
2017-08-31T01:33:56.374Z,21.37
2017-08-31T01:34:24.393Z,21.3
2017-08-31T01:34:52.192Z,21.33
2017-08-31T01:35:20.275Z,21.33
2017-08-31T01:35:48.277Z,21.29
2017-08-31T01:36:16.188Z,21.28
2017-08-31T01:36:44.516Z,21.23
2017-08-31T01:37:12.620Z,21.19
2017-08-31T01:37:40.624Z,21.22
2017-08-31T01:38:08.650Z,21.2
2017-08-31T01:38:36.561Z,21.15
2017-08-31T01:39:04.557Z,21.11
2017-08-31T01:39:32.585Z,21.11
2017-08-31T01:40:00.590Z,21.14
2017-08-31T01:40:28.601Z,21
2017-08-31T01:40:56.387Z,21.07
2017-08-31T01:41:24.506Z,21.01
2017-08-31T01:41:52.626Z,21.05
2017-08-31T01:42:20.754Z,21.01
2017-08-31T01:42:48.660Z,21.01
2017-08-31T01:43:16.787Z,21.03
2017-08-31T01:43:44.800Z,21.1
2017-08-31T01:44:12.600Z,21
2017-08-31T01:44:40.683Z,21.05
2017-08-31T01:45:08.680Z,20.95
2017-08-31T01:45:36.831Z,20.93
2017-08-31T01:46:04.930Z,20.95
2017-08-31T01:46:32.926Z,20.9
2017-08-31T01:47:00.802Z,20.89
2017-08-31T01:47:28.902Z,20.9
2017-08-31T01:47:57.040Z,20.88
2017-08-31T01:48:25.069Z,20.96
2017-08-31T01:48:53.170Z,20.89
2017-08-31T01:49:21.171Z,20.92
2017-08-31T01:49:49.273Z,20.8
2017-08-31T01:50:17.366Z,20.86
2017-08-31T01:50:45.286Z,20.75
2017-08-31T01:51:13.223Z,20.74
2017-08-31T01:51:41.335Z,20.71
2017-08-31T01:52:09.554Z,20.74
2017-08-31T01:52:37.659Z,20.74
2017-08-31T01:53:05.686Z,20.73
2017-08-31T01:53:33.521Z,20.7
2017-08-31T01:54:01.640Z,20.74
2017-08-31T01:54:29.579Z,20.77
2017-08-31T01:54:57.596Z,20.75
2017-08-31T01:55:25.704Z,20.78
2017-08-31T01:55:53.610Z,20.78
2017-08-31T01:56:21.638Z,20.86
2017-08-31T01:56:49.559Z,20.82
2017-08-31T01:57:17.588Z,20.89
2017-08-31T01:57:45.688Z,20.88
2017-08-31T01:58:13.689Z,20.86
2017-08-31T01:58:41.707Z,20.85
2017-08-31T01:59:09.610Z,20.89
2017-08-31T01:59:37.739Z,20.89
2017-08-31T02:00:05.764Z,20.86
2017-08-31T02:00:33.606Z,20.9
2017-08-31T02:01:01.709Z,21.04
2017-08-31T02:01:29.726Z,21.03
2017-08-31T02:01:57.747Z,21.05
2017-08-31T02:02:25.657Z,20.96
2017-08-31T02:02:53.647Z,21.01
2017-08-31T02:03:21.635Z,21.07
2017-08-31T02:03:49.632Z,21.03
2017-08-31T02:04:17.667Z,21.07
2017-08-31T02:04:45.555Z,21.1
2017-08-31T02:05:13.473Z,21.14
2017-08-31T02:05:41.356Z,21.14
2017-08-31T02:06:09.356Z,21.15
2017-08-31T02:06:37.379Z,21.17
2017-08-31T02:07:05.578Z,21.07
2017-08-31T02:07:33.590Z,21.13
2017-08-31T02:08:01.699Z,21.14
2017-08-31T02:08:29.603Z,21.17
2017-08-31T02:08:57.712Z,21.23
2017-08-31T02:09:25.819Z,21.19
2017-08-31T02:09:53.850Z,21.23
2017-08-31T02:10:21.976Z,21.22
2017-08-31T02:10:49.993Z,21.17
2017-08-31T02:11:18.103Z,21.11
2017-08-31T02:11:46.105Z,21.2
2017-08-31T02:12:14.186Z,21.14
2017-08-31T02:12:42.302Z,21.15
2017-08-31T02:13:10.429Z,21.08
2017-08-31T02:13:38.468Z,21.15
2017-08-31T02:14:06.576Z,21.15
2017-08-31T02:14:34.672Z,21.11
2017-08-31T02:15:02.781Z,21.17
2017-08-31T02:15:30.797Z,21.05
2017-08-31T02:15:58.804Z,21.13
2017-08-31T02:16:26.825Z,21.13
2017-08-31T02:16:54.816Z,21.2
2017-08-31T02:17:22.831Z,21.23
2017-08-31T02:17:50.820Z,21.15
2017-08-31T02:18:18.934Z,21.2
2017-08-31T02:18:46.937Z,21.22
2017-08-31T02:19:15.023Z,21.14
2017-08-31T02:19:43.014Z,21.15
2017-08-31T02:20:11.144Z,21.25
2017-08-31T02:20:39.268Z,21.11
2017-08-31T02:21:07.373Z,21.17
2017-08-31T02:21:35.288Z,21.07
2017-08-31T02:22:03.510Z,21.08
2017-08-31T02:22:31.631Z,21.14
2017-08-31T02:22:59.618Z,21.04
2017-08-31T02:23:27.625Z,21.13
2017-08-31T02:23:55.745Z,21.03
2017-08-31T02:24:23.855Z,21.15
2017-08-31T02:24:52.065Z,21.13
2017-08-31T02:25:20.077Z,21.04
2017-08-31T02:25:48.159Z,21.03
2017-08-31T02:26:16.254Z,21.05
2017-08-31T02:26:44.259Z,21.01
2017-08-31T02:27:12.349Z,21.03
2017-08-31T02:27:40.299Z,21.01
2017-08-31T02:28:08.301Z,20.96
2017-08-31T02:28:36.348Z,21.01
2017-08-31T02:29:04.386Z,21.01
2017-08-31T02:29:32.526Z,21.01
2017-08-31T02:30:00.628Z,21.08
2017-08-31T02:30:28.526Z,21.04
2017-08-31T02:30:56.414Z,21.03
2017-08-31T02:31:24.425Z,21.03
2017-08-31T02:31:52.417Z,21.1
2017-08-31T02:32:20.539Z,21.1
2017-08-31T02:32:48.439Z,21.1
2017-08-31T02:33:16.564Z,21.1
2017-08-31T02:33:44.554Z,21.1
2017-08-31T02:34:12.439Z,21
2017-08-31T02:34:40.552Z,20.98
2017-08-31T02:35:08.646Z,21.08
2017-08-31T02:35:36.750Z,21
2017-08-31T02:36:04.765Z,21
2017-08-31T02:36:32.863Z,21
2017-08-31T02:37:00.964Z,21.01
2017-08-31T02:37:29.079Z,20.93
2017-08-31T02:37:57.121Z,21.05
2017-08-31T02:38:25.135Z,20.93
2017-08-31T02:38:53.146Z,20.9
2017-08-31T02:39:21.282Z,20.85
2017-08-31T02:39:49.193Z,20.89
2017-08-31T02:40:17.107Z,20.92
2017-08-31T02:40:45.189Z,20.86
2017-08-31T02:41:13.177Z,20.86
2017-08-31T02:41:41.198Z,20.83
2017-08-31T02:42:09.205Z,20.82
2017-08-31T02:42:37.219Z,20.78
2017-08-31T02:43:05.205Z,20.75
2017-08-31T02:43:33.212Z,20.73
2017-08-31T02:44:01.312Z,20.75
2017-08-31T02:44:29.456Z,20.77
2017-08-31T02:44:57.450Z,20.74
2017-08-31T02:45:25.352Z,20.68
2017-08-31T02:45:53.457Z,20.73
2017-08-31T02:46:21.581Z,20.73
2017-08-31T02:46:49.599Z,20.71
2017-08-31T02:47:17.546Z,20.67
2017-08-31T02:47:45.545Z,20.71
2017-08-31T02:48:13.547Z,20.71
2017-08-31T02:48:41.469Z,20.68
2017-08-31T02:49:09.571Z,20.67
2017-08-31T02:49:37.463Z,20.74
2017-08-31T02:50:05.556Z,20.67
2017-08-31T02:50:33.497Z,20.78
2017-08-31T02:51:01.510Z,20.86
2017-08-31T02:51:29.625Z,20.88
2017-08-31T02:51:58.122Z,20.89
2017-08-31T02:52:26.346Z,20.95
2017-08-31T02:52:54.372Z,20.88
2017-08-31T02:53:22.286Z,21.1
2017-08-31T02:53:50.296Z,21.03
2017-08-31T02:54:18.392Z,21.04
2017-08-31T02:54:46.468Z,21.07
2017-08-31T02:55:14.473Z,21.13
2017-08-31T02:55:42.384Z,21.11
2017-08-31T02:56:10.374Z,21.19
2017-08-31T02:56:38.466Z,21.22
2017-08-31T02:57:06.582Z,21.26
2017-08-31T02:57:34.698Z,21.28
2017-08-31T02:58:02.707Z,21.28
2017-08-31T02:58:30.814Z,21.3
2017-08-31T02:58:58.737Z,21.35
2017-08-31T02:59:26.854Z,21.4
2017-08-31T02:59:54.974Z,21.38
2017-08-31T03:00:22.882Z,21.47
2017-08-31T03:00:50.978Z,21.45
2017-08-31T03:01:18.877Z,21.53
2017-08-31T03:01:47.004Z,21.48
2017-08-31T03:02:15.023Z,21.45
2017-08-31T03:02:43.085Z,21.51
2017-08-31T03:03:11.014Z,21.5
2017-08-31T03:03:39.140Z,21.5
2017-08-31T03:04:07.266Z,21.44
2017-08-31T03:04:35.368Z,21.43
2017-08-31T03:05:03.357Z,21.45
2017-08-31T03:05:31.471Z,21.4
2017-08-31T03:05:59.501Z,21.4
2017-08-31T03:06:27.514Z,21.35
2017-08-31T03:06:55.598Z,21.33
2017-08-31T03:07:23.743Z,21.28
2017-08-31T03:07:51.836Z,21.33
2017-08-31T03:08:19.943Z,21.23
2017-08-31T03:08:47.980Z,21.23
2017-08-31T03:09:15.983Z,21.19
2017-08-31T03:09:43.774Z,21.13
2017-08-31T03:10:13.195Z,21.15
2017-08-31T03:10:41.090Z,21.23
2017-08-31T03:11:09.186Z,21.08
2017-08-31T03:11:37.090Z,21.08
2017-08-31T03:12:05.209Z,20.98
2017-08-31T03:12:33.014Z,21.01
2017-08-31T03:13:01.114Z,21.04
2017-08-31T03:13:29.137Z,20.85
2017-08-31T03:13:57.263Z,20.88
2017-08-31T03:14:25.365Z,20.92
2017-08-31T03:14:53.434Z,20.88
2017-08-31T03:15:21.524Z,20.86
2017-08-31T03:15:49.636Z,20.82
2017-08-31T03:16:17.757Z,20.89
2017-08-31T03:16:45.880Z,20.82
2017-08-31T03:17:13.709Z,20.78
2017-08-31T03:17:41.823Z,20.85
2017-08-31T03:18:09.963Z,20.85
2017-08-31T03:18:37.878Z,20.78
2017-08-31T03:19:05.987Z,20.75
2017-08-31T03:19:33.892Z,20.8
2017-08-31T03:20:01.999Z,20.74
2017-08-31T03:20:30.096Z,20.75
2017-08-31T03:20:58.025Z,20.75
2017-08-31T03:21:26.050Z,20.71
2017-08-31T03:21:53.957Z,20.66
2017-08-31T03:22:22.171Z,20.6
2017-08-31T03:22:50.071Z,20.64
2017-08-31T03:23:18.063Z,20.59
2017-08-31T03:23:46.058Z,20.56
2017-08-31T03:24:13.939Z,20.52
2017-08-31T03:24:42.029Z,20.44
2017-08-31T03:25:10.156Z,20.42
2017-08-31T03:25:38.149Z,20.46
2017-08-31T03:26:06.094Z,20.46
2017-08-31T03:26:34.177Z,20.37
2017-08-31T03:27:02.216Z,20.39
2017-08-31T03:27:30.388Z,20.4
2017-08-31T03:27:58.505Z,20.37
2017-08-31T03:28:26.622Z,20.34
2017-08-31T03:28:54.715Z,20.42
2017-08-31T03:29:22.727Z,20.32
2017-08-31T03:29:50.869Z,20.37
2017-08-31T03:30:18.806Z,20.33
2017-08-31T03:30:46.837Z,20.37
2017-08-31T03:31:14.972Z,20.29
2017-08-31T03:31:42.977Z,20.3
2017-08-31T03:32:10.871Z,20.32
2017-08-31T03:32:38.957Z,20.29
2017-08-31T03:33:07.072Z,20.3
2017-08-31T03:33:35.187Z,20.37
2017-08-31T03:34:03.185Z,20.3
2017-08-31T03:34:31.224Z,20.29
2017-08-31T03:34:59.146Z,20.17
2017-08-31T03:35:27.152Z,20.21
2017-08-31T03:35:55.246Z,20.19
2017-08-31T03:36:23.356Z,20.19
2017-08-31T03:36:51.258Z,20.21
2017-08-31T03:37:19.511Z,20.22
2017-08-31T03:37:47.511Z,20.3
2017-08-31T03:38:15.540Z,20.3
2017-08-31T03:38:43.665Z,20.33
2017-08-31T03:39:11.745Z,20.32
2017-08-31T03:39:39.769Z,20.3
2017-08-31T03:40:07.654Z,20.37
2017-08-31T03:40:35.685Z,20.32
2017-08-31T03:41:03.817Z,20.34
2017-08-31T03:41:31.919Z,20.33
2017-08-31T03:41:59.938Z,20.4
2017-08-31T03:42:27.952Z,20.46
2017-08-31T03:42:56.044Z,20.39
2017-08-31T03:43:24.137Z,20.39
2017-08-31T03:43:52.190Z,20.42
2017-08-31T03:44:20.216Z,20.39
2017-08-31T03:44:48.347Z,20.42
2017-08-31T03:45:16.454Z,20.37
2017-08-31T03:45:44.456Z,20.4
2017-08-31T03:46:12.465Z,20.26
2017-08-31T03:46:40.464Z,20.4
2017-08-31T03:47:08.558Z,20.36
2017-08-31T03:47:36.484Z,20.4
2017-08-31T03:48:04.502Z,20.48
2017-08-31T03:48:32.513Z,20.4
2017-08-31T03:49:00.405Z,20.44
2017-08-31T03:49:28.337Z,20.46
2017-08-31T03:49:56.246Z,20.37
2017-08-31T03:50:24.350Z,20.3
2017-08-31T03:50:52.368Z,20.33
2017-08-31T03:51:20.390Z,20.36
2017-08-31T03:51:48.384Z,20.19
2017-08-31T03:52:16.414Z,20.22
2017-08-31T03:52:44.642Z,20.26
2017-08-31T03:53:12.748Z,20.22
2017-08-31T03:53:40.776Z,20.14
2017-08-31T03:54:08.792Z,20.07
2017-08-31T03:54:36.695Z,20.11
2017-08-31T03:55:04.818Z,20.14
2017-08-31T03:55:32.910Z,20.08
2017-08-31T03:56:00.795Z,20.11
2017-08-31T03:56:29.506Z,20.11
2017-08-31T03:56:57.525Z,20.14
2017-08-31T03:57:25.648Z,20.12
2017-08-31T03:57:53.657Z,20.12
2017-08-31T03:58:21.777Z,20.11
2017-08-31T03:58:49.883Z,20.08
2017-08-31T03:59:17.876Z,20.11
2017-08-31T03:59:45.869Z,20.11
2017-08-31T04:00:13.970Z,20.14
2017-08-31T04:00:42.090Z,20.12
2017-08-31T04:01:10.108Z,20.08
2017-08-31T04:01:38.214Z,20.11
2017-08-31T04:02:06.105Z,20.12
2017-08-31T04:02:34.243Z,20.07
2017-08-31T04:03:02.257Z,20.18
2017-08-31T04:03:30.362Z,20.15
2017-08-31T04:03:58.171Z,20.14
2017-08-31T04:04:26.272Z,20.18
2017-08-31T04:04:54.395Z,20.1
2017-08-31T04:05:22.424Z,20.14
2017-08-31T04:05:50.426Z,20.08
2017-08-31T04:06:18.481Z,20.03
2017-08-31T04:06:46.500Z,20.08
2017-08-31T04:07:14.589Z,20.08
2017-08-31T04:07:42.835Z,19.93
2017-08-31T04:08:10.855Z,19.96
2017-08-31T04:08:38.857Z,19.85
2017-08-31T04:09:06.980Z,19.82
2017-08-31T04:09:35.002Z,19.89
2017-08-31T04:10:03.114Z,19.89
2017-08-31T04:10:31.234Z,19.84
2017-08-31T04:10:59.340Z,19.84
2017-08-31T04:11:27.434Z,19.82
2017-08-31T04:11:55.569Z,19.84
2017-08-31T04:12:23.698Z,19.82
2017-08-31T04:12:51.584Z,19.81
2017-08-31T04:13:19.712Z,19.81
2017-08-31T04:13:47.705Z,19.79
2017-08-31T04:14:15.745Z,19.75
2017-08-31T04:14:43.829Z,19.7
2017-08-31T04:15:11.941Z,19.74
2017-08-31T04:15:39.938Z,19.72
2017-08-31T04:16:07.811Z,19.74
2017-08-31T04:16:35.907Z,19.74
2017-08-31T04:17:03.990Z,19.79
2017-08-31T04:17:32.094Z,19.75
2017-08-31T04:18:00.235Z,19.6
2017-08-31T04:18:28.140Z,19.72
2017-08-31T04:18:56.172Z,19.66
2017-08-31T04:19:24.299Z,19.74
2017-08-31T04:19:52.220Z,19.64
2017-08-31T04:20:20.251Z,19.66
2017-08-31T04:20:48.149Z,19.78
2017-08-31T04:21:16.074Z,19.71
2017-08-31T04:21:43.983Z,19.72
2017-08-31T04:22:11.999Z,19.7
2017-08-31T04:22:40.134Z,19.75
2017-08-31T04:23:08.985Z,19.67
2017-08-31T04:23:37.085Z,19.79
2017-08-31T04:24:05.196Z,19.78
2017-08-31T04:24:33.089Z,19.81
2017-08-31T04:25:01.183Z,19.81
2017-08-31T04:25:29.303Z,19.84
2017-08-31T04:25:57.324Z,19.85
2017-08-31T04:26:25.304Z,19.89
2017-08-31T04:26:53.224Z,19.89
2017-08-31T04:27:21.226Z,19.85
2017-08-31T04:27:49.173Z,19.85
2017-08-31T04:28:17.277Z,19.93
2017-08-31T04:28:45.193Z,19.96
2017-08-31T04:29:13.302Z,19.94
2017-08-31T04:29:41.405Z,19.94
2017-08-31T04:30:09.515Z,20.07
2017-08-31T04:30:37.490Z,20
2017-08-31T04:31:05.516Z,20.03
2017-08-31T04:31:33.605Z,20
2017-08-31T04:32:01.719Z,20.03
2017-08-31T04:32:29.968Z,20.1
2017-08-31T04:32:57.945Z,20.08
2017-08-31T04:33:26.062Z,20.1
2017-08-31T04:33:54.180Z,20.08
2017-08-31T04:34:22.067Z,20.04
2017-08-31T04:34:50.070Z,19.99
2017-08-31T04:35:18.202Z,20.02
2017-08-31T04:35:46.122Z,20.04
2017-08-31T04:36:14.219Z,20.02
2017-08-31T04:36:42.217Z,19.96
2017-08-31T04:37:10.143Z,19.96
2017-08-31T04:37:38.573Z,20
2017-08-31T04:38:06.554Z,19.96
2017-08-31T04:38:34.658Z,20.03
2017-08-31T04:39:02.772Z,20
2017-08-31T04:39:30.878Z,19.97
2017-08-31T04:39:58.998Z,20
2017-08-31T04:40:27.113Z,20.04
2017-08-31T04:40:55.143Z,20
2017-08-31T04:41:23.265Z,20.04
2017-08-31T04:41:51.277Z,20
2017-08-31T04:42:19.193Z,19.99
2017-08-31T04:42:47.317Z,19.99
2017-08-31T04:43:15.339Z,19.94
2017-08-31T04:43:43.249Z,19.92
2017-08-31T04:44:11.152Z,19.85
2017-08-31T04:44:39.081Z,19.94
2017-08-31T04:45:07.214Z,19.79
2017-08-31T04:45:35.223Z,19.84
2017-08-31T04:46:03.350Z,19.81
2017-08-31T04:46:31.263Z,19.79
2017-08-31T04:46:59.362Z,19.71
2017-08-31T04:47:27.373Z,19.78
2017-08-31T04:47:55.298Z,19.79
2017-08-31T04:48:23.399Z,19.75
2017-08-31T04:48:51.485Z,19.62
2017-08-31T04:49:19.592Z,19.66
2017-08-31T04:49:47.374Z,19.7
2017-08-31T04:50:15.393Z,19.64
2017-08-31T04:50:43.417Z,19.64
2017-08-31T04:51:11.551Z,19.67
2017-08-31T04:51:39.557Z,19.63
2017-08-31T04:52:07.669Z,19.66
2017-08-31T04:52:35.777Z,19.57
2017-08-31T04:53:03.782Z,19.56
2017-08-31T04:53:31.802Z,19.59
2017-08-31T04:54:00.352Z,19.56
2017-08-31T04:54:28.344Z,19.53
2017-08-31T04:54:56.453Z,19.6
2017-08-31T04:55:24.579Z,19.53
2017-08-31T04:55:52.691Z,19.49
2017-08-31T04:56:20.715Z,19.57
2017-08-31T04:56:48.730Z,19.57
2017-08-31T04:57:16.652Z,19.6
2017-08-31T04:57:44.786Z,19.56
2017-08-31T04:58:12.902Z,19.66
2017-08-31T04:58:41.013Z,19.57
2017-08-31T04:59:09.143Z,19.62
2017-08-31T04:59:37.246Z,19.57
2017-08-31T05:00:05.355Z,19.59
2017-08-31T05:00:33.364Z,19.53
2017-08-31T05:01:01.381Z,19.57
2017-08-31T05:01:29.467Z,19.56
2017-08-31T05:01:57.389Z,19.57
2017-08-31T05:02:25.503Z,19.55
2017-08-31T05:02:53.712Z,19.52
2017-08-31T05:03:21.829Z,19.53
2017-08-31T05:03:49.724Z,19.53
2017-08-31T05:04:17.400Z,19.53
2017-08-31T05:04:45.511Z,19.55
2017-08-31T05:05:13.535Z,19.53
2017-08-31T05:05:41.648Z,19.52
2017-08-31T05:06:09.740Z,19.53
2017-08-31T05:06:37.871Z,19.56
2017-08-31T05:07:05.983Z,19.47
2017-08-31T05:07:33.889Z,19.55
2017-08-31T05:08:01.996Z,19.53
2017-08-31T05:08:29.891Z,19.42
2017-08-31T05:08:57.921Z,19.47
2017-08-31T05:09:25.744Z,19.44
2017-08-31T05:09:53.664Z,19.47
2017-08-31T05:10:21.485Z,19.49
2017-08-31T05:10:49.596Z,19.47
2017-08-31T05:11:17.520Z,19.44
2017-08-31T05:11:45.533Z,19.41
2017-08-31T05:12:13.643Z,19.48
2017-08-31T05:12:41.628Z,19.42
2017-08-31T05:13:09.640Z,19.37
2017-08-31T05:13:34.313Z,19.42
2017-08-31T05:14:02.422Z,19.37
2017-08-31T05:14:30.723Z,19.34
2017-08-31T05:14:58.930Z,19.35
2017-08-31T05:15:27.151Z,19.32
2017-08-31T05:15:55.242Z,19.27
2017-08-31T05:16:23.272Z,19.23
2017-08-31T05:16:51.385Z,19.22
2017-08-31T05:17:19.287Z,19.26
2017-08-31T05:17:47.391Z,19.3
2017-08-31T05:18:15.305Z,19.23
2017-08-31T05:18:43.308Z,19.19
2017-08-31T05:19:11.112Z,19.17
2017-08-31T05:19:39.196Z,19.19
2017-08-31T05:20:07.218Z,19.23
2017-08-31T05:20:35.324Z,19.2
2017-08-31T05:21:03.211Z,19.26
2017-08-31T05:21:31.342Z,19.16
2017-08-31T05:21:59.463Z,19.24
2017-08-31T05:22:27.463Z,19.2
2017-08-31T05:22:55.577Z,19.2
2017-08-31T05:23:23.584Z,19.19
2017-08-31T05:23:51.596Z,19.09
2017-08-31T05:24:19.698Z,19.11
2017-08-31T05:24:47.794Z,19.08
2017-08-31T05:25:15.909Z,19.16
2017-08-31T05:25:43.902Z,19.05
2017-08-31T05:26:11.994Z,19
2017-08-31T05:26:39.810Z,18.94
2017-08-31T05:27:07.638Z,19.07
2017-08-31T05:27:35.556Z,18.96
2017-08-31T05:28:03.701Z,19.05
2017-08-31T05:28:31.946Z,18.92
2017-08-31T05:29:00.016Z,18.98
2017-08-31T05:29:28.032Z,18.85
2017-08-31T05:29:56.222Z,18.97
2017-08-31T05:30:24.245Z,18.91
2017-08-31T05:30:52.224Z,18.88
2017-08-31T05:31:20.256Z,18.89
2017-08-31T05:31:48.160Z,18.88
2017-08-31T05:32:16.180Z,18.91
2017-08-31T05:32:44.229Z,18.86
2017-08-31T05:33:12.305Z,18.96
2017-08-31T05:33:40.372Z,18.92
2017-08-31T05:34:08.456Z,18.96
2017-08-31T05:34:36.490Z,18.94
2017-08-31T05:35:04.646Z,19.01
2017-08-31T05:35:32.966Z,19.07
2017-08-31T05:36:00.993Z,19
2017-08-31T05:36:28.894Z,19.11
2017-08-31T05:36:56.901Z,19.01
2017-08-31T05:37:25.028Z,19.05
2017-08-31T05:37:53.119Z,19.07
2017-08-31T05:38:21.150Z,19.04
2017-08-31T05:38:49.166Z,19.04
2017-08-31T05:39:17.299Z,19.08
2017-08-31T05:39:45.352Z,19.05
2017-08-31T05:40:13.364Z,19.05
2017-08-31T05:40:41.537Z,19.05
2017-08-31T05:41:09.635Z,19.01
2017-08-31T05:41:37.753Z,19.08
2017-08-31T05:42:05.873Z,19.08
2017-08-31T05:42:33.992Z,19.12
2017-08-31T05:43:02.105Z,19.08
2017-08-31T05:43:30.100Z,19.12
2017-08-31T05:43:58.121Z,19.12
2017-08-31T05:44:26.248Z,19.09
2017-08-31T05:44:54.150Z,19.07
2017-08-31T05:45:22.177Z,19.08
2017-08-31T05:45:50.293Z,19.17
2017-08-31T05:46:18.399Z,19.05
2017-08-31T05:46:46.497Z,19.11
2017-08-31T05:47:14.511Z,19.09
2017-08-31T05:47:42.626Z,19.19
2017-08-31T05:48:10.626Z,19.15
2017-08-31T05:48:38.751Z,19.22
2017-08-31T05:49:06.870Z,19.22
2017-08-31T05:49:34.884Z,19.2
2017-08-31T05:50:02.993Z,19.17
2017-08-31T05:50:31.102Z,19.16
2017-08-31T05:50:59.108Z,19.19
2017-08-31T05:51:27.128Z,19.26
2017-08-31T05:51:55.232Z,19.2
2017-08-31T05:52:23.144Z,19.12
2017-08-31T05:52:51.145Z,19.27
2017-08-31T05:53:19.059Z,19.19
2017-08-31T05:53:47.177Z,19.19
2017-08-31T05:54:15.281Z,19.2
2017-08-31T05:54:43.299Z,19.22
2017-08-31T05:55:11.425Z,19.17
2017-08-31T05:55:39.316Z,19.16
2017-08-31T05:56:07.407Z,19.05
2017-08-31T05:56:35.415Z,19.08
2017-08-31T05:57:03.527Z,19.07
2017-08-31T05:57:31.511Z,19.08
2017-08-31T05:57:59.595Z,19.08
2017-08-31T05:58:27.505Z,19.08
2017-08-31T05:58:55.516Z,19.07
2017-08-31T05:59:23.541Z,19.12
2017-08-31T05:59:51.510Z,19.08
2017-08-31T06:00:19.525Z,19.09
2017-08-31T06:00:47.530Z,19.11
2017-08-31T06:01:15.533Z,19.08
2017-08-31T06:01:43.521Z,19.11
2017-08-31T06:02:11.449Z,19.19
2017-08-31T06:02:39.542Z,19.19
2017-08-31T06:03:07.718Z,19.16
2017-08-31T06:03:35.739Z,19.22